Marlborough, NH (03455)

2:47 PM EST on March 05, 2015 (GMT -0500)
APRSWXNET Marlborough NH US | Change Station
CLOSE
Current Station
Personal Weather Station
Location: Marlborough, NH
Elevation: 754 ft
Nearby Weather Stations

Elev 754 ft 42.91 °N, 72.22 °W | Updated 31 minutes ago

Overcast
Overcast
22 °F
Feels Like 22 °F
N
1
Wind Variable Wind from North
Gusts 3.0 mph

Today
High -- | Low -- °F
--% Chance of Precip.
Yesterday
High -- | Low -- °F
Precip. -- in
6:18 AM 5:42 PM
Full, 100% visible
Pressure 30.11 in
Visibility 10.0 miles
Clouds Few 4800 ft
Few 11000 ft
Windchill 22 °F
Dew Point 7 °F
Humidity 52%
Rainfall in
Snow Depth Not available.
UV 3 out of 12
Pollen .30 out of 12
Air Quality Not available.
Flu Activity Not available.
METAR KEEN 051935Z AUTO 36008KT 10SM FEW048 FEW110 M06/M16 A3011 RMK AO1

More Conditions Fewer Conditions

Pressure 30.11 in
Visibility 10.0 miles
Clouds Few 4800 ft
Few 11000 ft
Windchill 22 °F
Dew Point 7 °F
Humidity 52%
Rainfall in
Snow Depth Not available.
UV 3 out of 12
Pollen .30 out of 12
Air Quality Not available.
Flu Activity Not available.
METAR KEEN 051935Z AUTO 36008KT 10SM FEW048 FEW110 M06/M16 A3011 RMK AO1

More Conditions Fewer Conditions

10-Day Weather Forecast

Almanac

Astronomy

Mar. 05, 2015 Rise Set
Actual Time
Civil Twilight
Nautical Twilight
Astronomical Twilight
Moon
Length of Visible Light
Length of Day
Tomorrow will be .
, % of the Moon is Illuminated

Today's Extremes

State Highs State Lows

Community

WunderPhotos

Upload Photos

1,802,929 photos uploaded!

WunderBlogs® & News

Nearby

Air Quality

  Air Quality AQ Index Pollutant
Not available.

Snow Depth

Station Depth Elevation

Earthquake Activity

City Distance Mag. Time & Date
Minimum magnitude displayed is 2.5.

Coastal Water Temperatures

Place Temperature

Nearby Weather Stations